Stantonville, Tennessee
Current Conditions -  °F | °C
As of 2:35 AM on Sunday 23 Nov 2014 (Local Time) from KSNH Reporting Station
Overcast Overcast  
Wind Chill: 57°   Ceiling: 2400
Heat Index: 57°   Visibility: 10mi
Dew Point: 50°   Wind: 8mph
Humidity: 77%   Direction: 150°SSE
Pressure: 29.92"   Gusts: NA
Location:  35.16°N, 88.43°W
Report Text: KSNH 230835Z AUTO 15007KT 10SM OVC024 14/10 A2992 RMK
Loading
Personal Weather Stations






























Interactive Weather Map New forecast layout! Learn more

10-Day Weather Forecast

Advertisements
Track Severe Weather on mobile